Time;durP1;ratioP1;P1;durP2;ratioP2;P2;SDS_P1;SDS_P2;PMS_P1;PMS_P2;Temp;Humidity;BMP_temperature;BMP_pressure;BME280_temperature;BME280_humidity;BME280_pressure;Samples;Min_cycle;Max_cycle;Signal;HPM_P1;HPM_P2
2021/11/01 00:02:22;;;;;;;6.90;3.60;;;;;;;12.93;79.74;98684.28;5080203;28;20512;-73
2021/11/01 00:04:48;;;;;;;15.73;4.53;;;;;;;13.04;79.71;98699.03;5080833;28;20602;-73
2021/11/01 00:07:15;;;;;;;7.33;4.83;;;;;;;13.13;79.24;98714.78;5079813;28;20492;-72
2021/11/01 00:09:42;;;;;;;12.20;4.40;;;;;;;13.11;79.40;98711.47;5080102;28;20444;-72
2021/11/01 00:12:09;;;;;;;10.13;4.20;;;;;;;13.11;79.15;98686.50;5079392;28;20515;-72
2021/11/01 00:14:37;;;;;;;12.73;5.60;;;;;;;12.87;80.03;98669.00;5079661;28;20669;-71
2021/11/01 00:17:04;;;;;;;10.87;5.17;;;;;;;13.12;79.63;98677.41;5080485;28;21054;-70
2021/11/01 00:19:30;;;;;;;8.03;4.57;;;;;;;13.29;78.92;98668.03;5080834;28;20515;-70
2021/11/01 00:21:57;;;;;;;6.13;3.57;;;;;;;12.94;79.29;98672.56;5080337;28;20571;-70
2021/11/01 00:24:24;;;;;;;7.27;4.23;;;;;;;13.06;78.60;98660.25;5080618;28;20429;-70
2021/11/01 00:26:50;;;;;;;10.17;3.90;;;;;;;13.17;78.54;98654.34;5080244;28;20511;-70
2021/11/01 00:29:17;;;;;;;13.53;3.50;;;;;;;12.97;78.83;98666.81;5080289;28;20455;-72
2021/11/01 00:31:45;;;;;;;5.43;2.90;;;;;;;12.95;78.73;98671.50;5080629;28;20559;-70
2021/11/01 00:34:12;;;;;;;8.57;3.00;;;;;;;12.81;79.48;98663.38;5081185;28;20499;-70
2021/11/01 00:36:38;;;;;;;9.30;2.70;;;;;;;13.04;78.33;98667.69;5079962;28;20503;-71
2021/11/01 00:39:05;;;;;;;13.87;3.50;;;;;;;12.72;79.27;98663.72;5080616;28;20543;-72
2021/11/01 00:41:32;;;;;;;10.43;3.20;;;;;;;12.80;79.10;98672.44;5080125;28;20499;-72
2021/11/01 00:43:59;;;;;;;9.17;2.80;;;;;;;12.75;78.91;98679.41;5080623;28;20525;-72
2021/11/01 00:46:26;;;;;;;14.07;3.40;;;;;;;12.81;78.70;98684.84;5079777;28;20476;-72
2021/11/01 00:48:54;;;;;;;11.43;3.63;;;;;;;12.82;78.63;98681.13;5080078;28;20479;-72
2021/11/01 00:51:21;;;;;;;9.10;3.30;;;;;;;12.60;79.01;98687.53;5080258;28;20464;-72
2021/11/01 00:53:48;;;;;;;7.53;3.30;;;;;;;12.49;79.84;98680.81;5080651;28;20431;-71
2021/11/01 00:56:15;;;;;;;6.90;3.20;;;;;;;12.57;79.49;98677.19;5079595;28;20487;-71
2021/11/01 00:58:42;;;;;;;11.10;3.37;;;;;;;12.60;79.36;98666.06;5079242;28;20526;-72
2021/11/01 01:01:10;;;;;;;10.80;3.17;;;;;;;12.55;79.29;98664.00;5079946;28;20479;-72
2021/11/01 01:03:37;;;;;;;10.87;3.63;;;;;;;12.34;79.86;98654.09;5082223;28;20498;-72
2021/11/01 01:06:05;;;;;;;12.23;3.33;;;;;;;12.58;79.13;98658.22;5083014;28;20487;-72
2021/11/01 01:08:31;;;;;;;13.67;3.03;;;;;;;12.40;79.57;98671.25;5083490;28;20556;-71
2021/11/01 01:10:58;;;;;;;12.80;3.90;;;;;;;12.26;79.84;98664.94;5083470;28;20503;-70
2021/11/01 01:13:28;;;;;;;9.83;3.30;;;;;;;12.25;79.33;98660.59;5083449;28;20472;-69
2021/11/01 01:15:59;;;;;;;14.57;3.53;;;;;;;12.18;79.89;98655.16;5082874;28;20518;-71
2021/11/01 01:18:29;;;;;;;8.57;2.83;;;;;;;12.30;79.43;98670.75;5083895;28;20788;-71
2021/11/01 01:20:59;;;;;;;9.23;2.70;;;;;;;12.24;79.26;98675.03;5083715;28;20980;-75
2021/11/01 01:23:28;;;;;;;12.80;2.73;;;;;;;12.40;78.61;98672.09;5083972;28;20439;-71
2021/11/01 01:25:57;;;;;;;13.47;2.73;;;;;;;12.00;80.08;98657.44;5083377;28;20507;-74
2021/11/01 01:28:24;;;;;;;16.27;3.07;;;;;;;12.14;79.48;98658.44;5084383;28;20531;-74
2021/11/01 01:30:52;;;;;;;13.67;3.40;;;;;;;12.25;79.11;98647.19;5082828;28;20963;-76
2021/11/01 01:33:18;;;;;;;13.63;2.60;;;;;;;12.22;79.08;98648.41;5083433;28;20805;-74
2021/11/01 01:35:45;;;;;;;10.70;3.20;;;;;;;12.13;79.14;98654.91;5082778;28;20499;-74
2021/11/01 01:38:13;;;;;;;11.03;2.90;;;;;;;12.05;79.32;98660.41;5083223;28;20473;-75
2021/11/01 01:40:42;;;;;;;13.17;3.70;;;;;;;12.28;78.63;98649.50;5082753;28;20525;-75
2021/11/01 01:43:08;;;;;;;10.23;3.03;;;;;;;12.11;78.64;98646.22;5083138;28;20468;-74
2021/11/01 01:45:36;;;;;;;14.70;2.63;;;;;;;12.29;78.41;98648.50;5082794;28;20498;-74
2021/11/01 01:48:03;;;;;;;12.13;3.60;;;;;;;12.14;77.92;98645.03;5083409;28;20459;-75
2021/11/01 01:50:30;;;;;;;7.33;2.03;;;;;;;12.10;78.23;98647.25;5082228;28;20474;-74
2021/11/01 01:52:56;;;;;;;13.20;2.70;;;;;;;11.79;79.65;98644.81;5083373;28;20444;-74
2021/11/01 01:55:23;;;;;;;8.20;2.87;;;;;;;12.03;78.61;98649.88;5082981;28;20575;-75
2021/11/01 01:57:52;;;;;;;13.47;2.50;;;;;;;12.10;78.50;98638.38;5082782;28;20515;-75
2021/11/01 02:00:32;;;;;;;11.80;2.30;;;;;;;11.98;78.75;98646.91;5081729;28;20448;-74
2021/11/01 02:03:00;;;;;;;7.57;2.83;;;;;;;11.82;79.05;98639.06;5083462;28;20505;-74
2021/11/01 02:05:33;;;;;;;10.87;2.27;;;;;;;11.98;78.64;98635.38;5082959;28;20466;-74
2021/11/01 02:08:05;;;;;;;8.53;3.27;;;;;;;11.85;78.61;98636.84;5082855;28;20484;-74
2021/11/01 02:10:35;;;;;;;10.57;3.20;;;;;;;11.98;78.38;98633.53;5081928;28;20459;-73
2021/11/01 02:13:06;;;;;;;11.50;2.40;;;;;;;11.96;77.82;98632.03;5082888;28;20475;-74
2021/11/01 02:15:37;;;;;;;15.33;3.47;;;;;;;11.86;78.87;98637.69;5081921;28;20471;-74
2021/11/01 02:18:06;;;;;;;8.47;2.30;;;;;;;11.80;78.82;98633.06;5072900;28;20686;-75
2021/11/01 02:20:39;;;;;;;10.70;2.40;;;;;;;11.77;79.21;98639.66;5081815;28;20482;-74
2021/11/01 02:23:12;;;;;;;11.80;3.27;;;;;;;11.73;79.07;98629.50;5082914;28;20470;-74
2021/11/01 02:25:42;;;;;;;18.53;2.97;;;;;;;11.78;78.65;98640.47;5082116;28;21179;-74
2021/11/01 02:28:12;;;;;;;9.47;2.70;;;;;;;11.85;78.73;98636.03;5082578;28;20456;-74
2021/11/01 02:30:39;;;;;;;13.73;3.63;;;;;;;11.91;78.43;98629.09;5081599;28;20475;-74
2021/11/01 02:33:06;;;;;;;15.50;4.30;;;;;;;11.76;78.72;98635.31;5083096;28;20452;-73
2021/11/01 02:35:33;;;;;;;10.23;4.70;;;;;;;11.67;79.17;98634.59;5081210;28;20905;-75
2021/11/01 02:38:02;;;;;;;7.07;4.00;;;;;;;11.49;79.85;98620.75;5081985;28;20456;-74
2021/11/01 02:40:30;;;;;;;10.60;4.83;;;;;;;11.73;79.41;98634.84;5081745;28;20474;-76
2021/11/01 02:42:59;;;;;;;14.40;4.57;;;;;;;11.92;78.72;98628.09;5081456;28;20444;-75
2021/11/01 02:45:26;;;;;;;22.03;5.50;;;;;;;11.77;79.05;98638.81;5081303;28;21084;-73
2021/11/01 02:47:53;;;;;;;8.63;3.57;;;;;;;11.87;78.60;98633.97;5082171;28;20448;-74
2021/11/01 02:50:21;;;;;;;11.60;3.60;;;;;;;11.97;78.16;98639.91;5084276;28;20452;-74
2021/11/01 02:52:48;;;;;;;14.80;3.93;;;;;;;11.66;79.11;98640.13;5084284;28;20508;-75
2021/11/01 02:55:16;;;;;;;14.00;3.90;;;;;;;11.69;79.28;98640.56;5083832;28;20472;-74
2021/11/01 02:57:43;;;;;;;10.40;4.10;;;;;;;11.67;79.05;98639.94;5082159;28;20455;-73
2021/11/01 03:00:14;;;;;;;15.37;3.37;;;;;;;11.68;78.90;98640.75;5081114;28;20457;-74
2021/11/01 03:02:40;;;;;;;12.80;3.20;;;;;;;11.67;79.06;98634.59;5082371;28;20459;-75
2021/11/01 03:05:10;;;;;;;10.70;3.10;;;;;;;11.74;78.61;98633.84;5081640;28;20471;-74
2021/11/01 03:07:37;;;;;;;11.30;3.10;;;;;;;11.47;79.23;98637.03;5080920;28;20451;-74
2021/11/01 03:10:05;;;;;;;8.67;3.30;;;;;;;11.42;79.23;98635.91;5082669;28;20471;-75
2021/11/01 03:12:32;;;;;;;9.27;3.00;;;;;;;11.36;79.35;98658.88;5080711;28;20981;-74
2021/11/01 03:15:05;;;;;;;14.23;3.40;;;;;;;11.55;79.07;98652.13;5080957;28;21008;-73
2021/11/01 03:17:39;;;;;;;13.30;3.97;;;;;;;11.35;78.60;98645.69;5080850;28;20436;-74
2021/11/01 03:20:08;;;;;;;7.90;3.90;;;;;;;11.60;78.12;98644.38;5081439;28;20463;-73
2021/11/01 03:22:37;;;;;;;9.57;3.07;;;;;;;11.39;78.90;98647.00;5082075;28;20472;-74
2021/11/01 03:25:09;;;;;;;13.00;2.97;;;;;;;11.58;78.32;98649.09;5080647;28;20944;-74
2021/11/01 03:27:37;;;;;;;11.87;3.73;;;;;;;11.50;78.27;98660.72;5085519;28;20519;-73
2021/11/01 03:30:06;;;;;;;10.00;3.30;;;;;;;11.50;78.07;98657.22;5080422;28;20463;-73
2021/11/01 03:32:34;;;;;;;8.80;2.30;;;;;;;11.49;77.82;98651.03;5081153;28;20527;-74
2021/11/01 03:35:02;;;;;;;20.40;3.17;;;;;;;11.50;77.29;98651.88;5081300;28;20456;-73
2021/11/01 03:37:30;;;;;;;11.13;3.30;;;;;;;11.57;77.27;98651.97;5080242;28;20525;-74
2021/11/01 03:39:57;;;;;;;11.57;2.97;;;;;;;11.76;76.48;98646.00;5081069;28;20565;-75
2021/11/01 03:42:25;;;;;;;10.20;3.10;;;;;;;11.47;77.15;98649.56;5080396;28;20503;-74
2021/11/01 03:44:58;;;;;;;11.27;2.53;;;;;;;11.49;76.91;98647.50;5080081;28;20476;-75
2021/11/01 03:47:26;;;;;;;13.37;3.40;;;;;;;11.33;76.99;98645.03;5081291;28;20472;-74
2021/11/01 03:49:58;;;;;;;8.83;2.47;;;;;;;11.42;76.96;98639.44;5080554;28;20490;-74
2021/11/01 03:52:28;;;;;;;10.37;3.20;;;;;;;11.45;77.04;98651.59;5080391;28;20843;-74
2021/11/01 03:54:55;;;;;;;10.90;2.67;;;;;;;11.62;76.37;98658.41;5081428;28;20456;-74
2021/11/01 03:57:22;;;;;;;11.80;3.53;;;;;;;11.45;76.50;98651.59;5081017;28;20570;-74
2021/11/01 03:59:49;;;;;;;5.50;2.10;;;;;;;11.49;76.50;98653.72;5079772;28;20487;-74
2021/11/01 04:02:18;;;;;;;10.50;3.03;;;;;;;11.65;76.05;98652.69;5080567;28;20478;-74
2021/11/01 04:04:47;;;;;;;8.27;2.80;;;;;;;11.56;76.29;98651.13;5080705;28;20483;-74
2021/11/01 04:07:15;;;;;;;16.60;5.03;;;;;;;11.53;76.44;98653.31;5081112;28;20515;-74
2021/11/01 04:09:43;;;;;;;7.90;3.03;;;;;;;11.37;76.71;98651.69;5081166;28;20515;-74
2021/11/01 04:12:10;;;;;;;13.20;2.90;;;;;;;11.35;76.46;98651.03;5079204;28;20487;-74
2021/11/01 04:14:40;;;;;;;10.60;3.30;;;;;;;11.44;76.30;98649.91;5080481;28;20523;-74
2021/11/01 04:17:12;;;;;;;7.60;2.50;;;;;;;11.25;76.66;98651.34;5080300;28;20510;-74
2021/11/01 04:19:55;;;;;;;12.47;3.03;;;;;;;11.57;75.33;98651.97;5080313;28;20456;-74
2021/11/01 04:22:24;;;;;;;10.50;2.80;;;;;;;11.43;75.87;98645.59;5080267;28;20471;-74
2021/11/01 04:24:51;;;;;;;8.17;2.73;;;;;;;11.39;76.09;98644.31;5080516;28;20500;-74
2021/11/01 04:27:17;;;;;;;5.40;2.90;;;;;;;11.38;75.71;98651.50;5078475;28;20483;-74
2021/11/01 04:29:44;;;;;;;14.97;3.03;;;;;;;11.22;75.90;98649.84;5080054;28;20488;-74
2021/11/01 04:32:24;;;;;;;8.90;2.73;;;;;;;11.27;75.56;98638.59;5079477;28;20488;-74
2021/11/01 04:34:57;;;;;;;12.60;2.80;;;;;;;11.57;74.86;98636.72;5080083;28;20435;-74
2021/11/01 04:37:25;;;;;;;13.10;2.37;;;;;;;11.54;74.92;98650.47;5081026;28;20479;-74
2021/11/01 04:42:56;;;;;;;10.40;2.70;;;;;;;11.37;74.82;98654.34;5080395;28;20494;-74
2021/11/01 04:53:38;;;;;;;8.07;2.57;;;;;;;11.17;74.92;98652.25;5083993;28;20435;-74
2021/11/01 04:56:05;;;;;;;10.43;2.40;;;;;;;11.23;74.72;98650.66;5082787;28;21033;-74
2021/11/01 04:58:32;;;;;;;11.60;2.20;;;;;;;11.41;74.56;98651.13;5083386;28;20762;-73
2021/11/01 05:00:59;;;;;;;9.90;2.30;;;;;;;11.48;73.96;98651.22;5081943;28;20475;-74
2021/11/01 05:03:34;;;;;;;11.23;2.40;;;;;;;11.34;74.27;98642.19;5083281;28;20578;-75
2021/11/01 05:06:01;;;;;;;6.83;2.63;;;;;;;11.50;73.73;98647.34;5082659;28;20471;-74
2021/11/01 05:08:34;;;;;;;5.57;1.70;;;;;;;11.28;73.32;98646.44;5083463;28;20709;-74
2021/11/01 05:11:10;;;;;;;5.03;2.27;;;;;;;11.47;72.91;98647.72;5082257;28;20483;-73
2021/11/01 05:13:37;;;;;;;8.23;2.90;;;;;;;11.59;72.33;98647.25;5081975;28;20451;-71
2021/11/01 05:16:09;;;;;;;7.27;1.90;;;;;;;11.42;72.84;98643.94;5081374;28;20991;-74
2021/11/01 05:18:40;;;;;;;6.77;1.90;;;;;;;11.60;72.23;98647.06;5083479;28;20526;-74
2021/11/01 05:21:19;;;;;;;8.37;1.93;;;;;;;11.28;72.84;98638.41;5081664;28;20499;-75
2021/11/01 05:23:53;;;;;;;9.23;1.97;;;;;;;11.40;72.41;98637.94;5083595;28;20470;-74
2021/11/01 05:26:28;;;;;;;9.13;2.27;;;;;;;11.38;72.41;98634.63;5080833;28;20463;-74
2021/11/01 05:28:59;;;;;;;3.80;1.80;;;;;;;11.40;72.29;98636.09;5082628;28;21005;-74
2021/11/01 05:31:27;;;;;;;11.00;2.77;;;;;;;11.29;72.15;98637.38;5077124;28;20470;-74
2021/11/01 05:34:00;;;;;;;9.63;2.73;;;;;;;11.46;72.13;98632.69;5081756;28;20444;-74
2021/11/01 05:36:27;;;;;;;8.97;2.43;;;;;;;11.45;71.73;98640.88;5083038;28;20512;-74
2021/11/01 05:38:54;;;;;;;6.80;1.70;;;;;;;11.41;71.60;98637.75;5083189;28;20527;-74
2021/11/01 05:41:22;;;;;;;6.90;2.67;;;;;;;11.31;71.88;98637.19;5081462;28;20531;-75
2021/11/01 05:43:49;;;;;;;5.40;1.70;;;;;;;11.39;72.41;98641.66;5083428;28;20437;-74
2021/11/01 05:46:16;;;;;;;12.13;2.20;;;;;;;11.33;71.07;98642.38;5080617;28;20475;-74
2021/11/01 05:48:48;;;;;;;6.97;1.80;;;;;;;11.24;71.83;98638.97;5081745;28;20460;-74
2021/11/01 05:51:16;;;;;;;6.93;1.77;;;;;;;11.20;71.55;98661.75;5082231;28;20472;-74
2021/11/01 05:53:45;;;;;;;7.83;1.90;;;;;;;11.33;71.36;98656.56;5082071;28;20448;-73
2021/11/01 05:56:21;;;;;;;8.63;2.13;;;;;;;11.27;71.32;98662.69;5081205;28;20479;-74
2021/11/01 05:59:00;;;;;;;3.10;1.50;;;;;;;11.24;71.18;98658.50;5071858;28;20452;-74
2021/11/01 06:01:52;;;;;;;7.73;2.30;;;;;;;11.08;71.68;98666.72;5081918;28;20467;-74
2021/11/01 06:04:21;;;;;;;6.30;2.03;;;;;;;11.07;71.47;98663.19;5080107;28;20484;-74
2021/11/01 06:07:01;;;;;;;5.00;2.17;;;;;;;11.12;71.50;98668.00;5081075;28;21250;-74
2021/11/01 06:09:46;;;;;;;4.93;2.03;;;;;;;11.14;71.25;98674.00;5082033;28;20460;-73
2021/11/01 06:14:59;;;;;;;7.90;1.77;;;;;;;11.20;71.05;98665.25;5081893;28;20483;-73
2021/11/01 06:17:25;;;;;;;7.60;2.00;;;;;;;11.25;70.88;98654.84;5082161;28;20547;-73
2021/11/01 06:19:52;;;;;;;6.70;1.90;;;;;;;11.19;71.26;98658.22;5082087;28;20472;-73
2021/11/01 06:22:19;;;;;;;6.07;2.90;;;;;;;11.23;71.14;98667.56;5082735;28;20914;-74
2021/11/01 06:24:51;;;;;;;5.73;1.80;;;;;;;11.23;71.21;98670.25;5088689;28;20503;-75
2021/11/01 06:27:18;;;;;;;14.53;2.67;;;;;;;11.01;71.37;98663.94;5080222;28;20548;-74
2021/11/01 06:29:56;;;;;;;8.23;2.50;;;;;;;11.14;71.61;98671.31;5079786;28;21022;-74
2021/11/01 06:32:35;;;;;;;6.93;1.80;;;;;;;11.20;71.45;98675.94;5079139;28;20507;-72
2021/11/01 06:40:36;;;;;;;4.37;1.67;;;;;;;11.18;71.89;98671.78;5084991;28;20517;-74
2021/11/01 06:43:09;;;;;;;3.53;1.70;;;;;;;11.10;71.62;98676.22;5082605;28;20685;-74
2021/11/01 06:45:46;;;;;;;5.50;1.77;;;;;;;11.01;72.02;98677.31;5077677;28;20534;-72
2021/11/01 06:51:08;;;;;;;6.23;2.10;;;;;;;11.17;71.47;98678.16;5096526;28;20501;-74
2021/11/01 06:56:34;;;;;;;4.93;1.87;;;;;;;11.07;71.96;98691.78;5086120;28;20569;-73
2021/11/01 07:15:35;;;;;;;6.20;1.70;;;;;;;11.45;70.51;98695.22;5072295;28;20473;-74
2021/11/01 07:18:06;;;;;;;4.33;1.37;;;;;;;11.53;70.31;98701.50;5089815;28;20495;-74
2021/11/01 07:20:45;;;;;;;9.00;1.93;;;;;;;11.48;70.41;98699.41;5096055;28;20474;-74
2021/11/01 07:23:42;;;;;;;6.73;1.80;;;;;;;11.40;70.72;98697.63;5097387;28;20623;-74
2021/11/01 08:46:17;;;;;;;9.07;2.20;;;;;;;15.23;54.76;98757.41;4938477;29;20486;-75
2021/11/01 08:49:02;;;;;;;3.43;1.60;;;;;;;15.03;55.51;98755.53;4940745;29;20534;-75
2021/11/01 08:51:48;;;;;;;6.47;1.33;;;;;;;15.70;53.86;98760.03;4939047;29;20484;-74
2021/11/01 09:03:02;;;;;;;4.63;1.17;;;;;;;16.05;52.55;98752.50;4939505;28;20485;-74
2021/11/01 09:22:30;;;;;;;5.87;1.57;;;;;;;14.41;55.96;98761.97;4957318;28;20515;-75
2021/11/01 09:25:05;;;;;;;7.10;1.83;;;;;;;13.81;57.68;98761.75;4981327;28;20462;-74
2021/11/01 09:27:33;;;;;;;3.83;1.07;;;;;;;13.66;58.33;98761.84;4981569;28;20452;-74
2021/11/01 09:30:12;;;;;;;4.70;1.27;;;;;;;13.03;59.91;98756.41;4981391;28;20583;-74
2021/11/01 09:41:12;;;;;;;6.40;1.40;;;;;;;12.38;61.50;98767.94;4949816;29;20547;-74
2021/11/01 09:43:39;;;;;;;5.00;1.50;;;;;;;12.56;61.91;98755.97;4959783;28;20492;-71
2021/11/01 09:46:09;;;;;;;4.60;1.23;;;;;;;12.42;62.23;98765.72;4960825;28;20491;-74
2021/11/01 09:48:38;;;;;;;2.40;1.30;;;;;;;12.56;61.83;98766.69;4962502;29;20633;-74
2021/11/01 09:51:06;;;;;;;3.67;1.30;;;;;;;12.69;61.07;98766.81;4991636;28;20531;-73
2021/11/01 09:53:39;;;;;;;5.00;1.87;;;;;;;12.81;61.14;98770.66;5001021;28;20447;-73
2021/11/01 09:56:18;;;;;;;7.07;2.17;;;;;;;12.95;60.48;98766.25;4999984;28;20471;-74
2021/11/01 10:01:29;;;;;;;5.50;1.57;;;;;;;13.34;59.70;98769.50;4999815;28;20474;-74
2021/11/01 10:03:57;;;;;;;3.97;1.43;;;;;;;13.51;59.37;98767.34;5000635;28;20554;-74
2021/11/01 10:06:27;;;;;;;5.67;1.40;;;;;;;13.99;58.12;98764.75;4999228;28;20479;-73
2021/11/01 10:08:55;;;;;;;5.40;2.17;;;;;;;13.69;58.24;98764.97;5000700;28;20510;-75
2021/11/01 10:11:24;;;;;;;5.07;1.47;;;;;;;13.88;57.01;98758.06;5003863;28;20502;-74
2021/11/01 10:13:52;;;;;;;4.80;1.23;;;;;;;14.40;55.49;98752.28;5054788;28;20421;-74
2021/11/01 10:19:14;;;;;;;7.33;1.47;;;;;;;14.44;54.25;98753.53;5042572;28;20480;-73
2021/11/01 10:21:51;;;;;;;5.30;1.50;;;;;;;14.39;53.92;98739.84;5041312;28;20478;-74
2021/11/01 10:24:24;;;;;;;3.70;1.53;;;;;;;15.22;52.17;98750.34;5043043;28;20816;-73
2021/11/01 10:26:52;;;;;;;7.90;1.50;;;;;;;15.53;51.34;98746.19;5040972;28;20492;-74
2021/11/01 10:29:19;;;;;;;4.97;1.67;;;;;;;15.51;50.66;98745.56;5040889;28;20454;-74
2021/11/01 10:31:47;;;;;;;3.80;1.13;;;;;;;16.30;49.14;98744.53;5041587;28;20504;-74
2021/11/01 10:34:15;;;;;;;3.03;1.17;;;;;;;15.31;50.68;98742.88;5042238;28;20436;-74
2021/11/01 10:36:45;;;;;;;3.73;1.20;;;;;;;15.42;50.82;98740.38;5040222;28;20928;-74
2021/11/01 10:39:17;;;;;;;5.83;1.23;;;;;;;15.36;50.45;98735.84;5041793;28;20532;-74
2021/11/01 10:41:48;;;;;;;3.10;1.30;;;;;;;16.00;49.88;98728.03;5052841;28;20492;-74
2021/11/01 10:44:41;;;;;;;2.03;1.20;;;;;;;15.46;50.20;98739.97;5079698;28;20463;-74
2021/11/01 10:47:30;;;;;;;3.50;1.07;;;;;;;16.03;48.96;98738.41;5080817;28;20986;-74
2021/11/01 11:12:11;;;;;;;4.40;1.00;;;;;;;14.38;53.84;98722.91;5059695;28;20503;-74
2021/11/01 11:14:41;;;;;;;7.90;1.40;;;;;;;14.47;54.08;98729.75;5060480;28;20471;-74
2021/11/01 11:37:40;;;;;;;6.53;1.77;;;;;;;15.34;50.49;98731.69;5016870;28;20486;-74
2021/11/01 11:40:26;;;;;;;3.30;2.07;;;;;;;15.34;51.74;98737.09;5017581;28;20435;-74
2021/11/01 11:48:48;;;;;;;4.20;1.23;;;;;;;15.23;52.01;98730.47;4959842;29;20421;-74
2021/11/01 11:51:15;;;;;;;6.60;1.60;;;;;;;14.36;52.06;98726.84;4957967;29;20710;-73
2021/11/01 11:53:57;;;;;;;3.43;1.30;;;;;;;15.06;50.47;98733.56;4959291;29;20458;-75
2021/11/01 11:56:30;;;;;;;6.93;1.40;;;;;;;15.94;47.89;98723.53;4942838;29;20485;-74
2021/11/01 11:58:59;;;;;;;5.00;1.17;;;;;;;15.08;48.05;98725.28;4938672;29;21039;-74
2021/11/01 12:01:27;;;;;;;3.83;1.20;;;;;;;15.31;47.81;98722.19;4939641;29;20880;-73
2021/11/01 12:03:54;;;;;;;3.23;1.37;;;;;;;15.26;47.07;98708.53;4943188;29;20623;-75
2021/11/01 12:06:23;;;;;;;6.43;1.70;;;;;;;15.79;46.16;98719.19;4958168;29;20484;-74
2021/11/01 12:08:56;;;;;;;6.63;2.37;;;;;;;15.09;47.56;98721.56;4959218;29;20433;-71
2021/11/01 12:11:38;;;;;;;3.43;1.27;;;;;;;15.05;47.79;98717.63;4949795;29;20514;-73
2021/11/01 12:17:07;;;;;;;2.80;0.80;;;;;;;15.04;48.29;98713.28;5025963;28;20490;-71
2021/11/01 12:19:34;;;;;;;2.67;1.17;;;;;;;15.62;47.33;98709.88;5080517;28;20570;-73
2021/11/01 12:22:06;;;;;;;4.87;1.60;;;;;;;15.12;46.98;98705.03;5078790;28;20559;-74
2021/11/01 12:24:34;;;;;;;3.60;1.10;;;;;;;14.89;47.54;98705.41;5079446;28;20509;-73
2021/11/01 12:27:03;;;;;;;3.30;1.20;;;;;;;14.51;48.68;98705.97;5079420;28;20493;-74
2021/11/01 12:29:32;;;;;;;3.63;1.17;;;;;;;14.34;49.28;98705.53;5078849;28;20452;-74
2021/11/01 12:32:04;;;;;;;2.63;1.20;;;;;;;14.16;49.15;98710.63;5079091;28;20476;-77
2021/11/01 12:34:31;;;;;;;3.00;1.20;;;;;;;14.50;50.05;98702.44;5080124;28;20467;-77
2021/11/01 12:37:03;;;;;;;2.83;1.17;;;;;;;14.77;50.20;98704.38;5069085;28;20507;-77
2021/11/01 12:39:34;;;;;;;3.00;1.70;;;;;;;14.49;49.02;98702.66;5060133;28;20468;-78
2021/11/01 12:42:26;;;;;;;3.60;1.20;;;;;;;14.53;49.41;98695.84;5070758;28;20475;-75
2021/11/01 12:48:02;;;;;;;4.13;1.20;;;;;;;14.43;49.60;98701.63;5078587;28;20464;-77
2021/11/01 12:58:50;;;;;;;3.60;1.90;;;;;;;14.34;49.28;98700.16;5081034;28;20574;-75
2021/11/01 13:01:18;;;;;;;4.93;1.63;;;;;;;14.59;48.69;98699.59;5082670;28;20467;-76
2021/11/01 13:03:52;;;;;;;3.00;1.10;;;;;;;14.65;48.49;98696.06;5083742;28;20533;-76
2021/11/01 13:06:31;;;;;;;1.90;0.97;;;;;;;14.26;49.99;98701.16;5081464;28;20509;-76
2021/11/01 13:09:04;;;;;;;2.67;1.60;;;;;;;14.86;48.53;98695.91;5084777;28;20530;-76
2021/11/01 13:11:42;;;;;;;5.80;1.23;;;;;;;14.77;48.71;98693.63;5082603;28;20475;-76
2021/11/01 13:19:48;;;;;;;2.30;1.13;;;;;;;14.94;47.66;98700.25;5089697;28;20510;-76
2021/11/01 13:22:21;;;;;;;3.00;1.60;;;;;;;14.98;48.03;98706.03;5082665;28;20495;-75
2021/11/01 13:24:54;;;;;;;2.13;0.90;;;;;;;15.05;47.78;98696.09;5083014;28;21144;-75
2021/11/01 13:27:35;;;;;;;1.73;1.00;;;;;;;14.74;47.31;98704.78;5077137;28;20486;-74
2021/11/01 13:36:07;;;;;;;3.67;1.30;;;;;;;15.15;46.86;98701.06;5101659;28;20608;-75
2021/11/01 13:38:33;;;;;;;4.27;1.03;;;;;;;15.02;47.05;98697.34;5095894;28;20498;-76
2021/11/01 13:41:01;;;;;;;4.80;1.00;;;;;;;14.95;47.17;98715.38;5085973;28;20475;-75
2021/11/01 13:43:28;;;;;;;2.70;0.93;;;;;;;14.99;46.77;98705.00;5080407;28;20477;-75
2021/11/01 13:45:58;;;;;;;4.60;1.10;;;;;;;14.94;46.82;98711.00;5078069;28;20506;-76
2021/11/01 13:48:27;;;;;;;2.40;1.00;;;;;;;15.25;46.81;98704.97;5095774;28;20443;-74
2021/11/01 13:51:02;;;;;;;3.00;1.00;;;;;;;15.08;46.08;98701.06;5101990;28;20475;-76
2021/11/01 13:53:33;;;;;;;3.50;1.10;;;;;;;15.16;46.42;98703.56;5084422;28;20455;-76
2021/11/01 13:56:16;;;;;;;4.80;1.27;;;;;;;15.08;46.96;98719.91;5089018;28;20501;-74
2021/11/01 13:58:53;;;;;;;4.10;1.00;;;;;;;15.00;46.02;98710.19;5091130;28;20547;-76
2021/11/01 14:01:31;;;;;;;2.93;0.93;;;;;;;14.81;46.65;98713.72;5088489;28;20476;-76
2021/11/01 14:12:28;;;;;;;3.93;1.23;;;;;;;15.02;47.06;98713.50;5061337;28;20564;-75
2021/11/01 14:14:59;;;;;;;4.60;0.97;;;;;;;15.02;47.74;98716.19;5067485;28;20505;-77
2021/11/01 14:28:32;;;;;;;3.90;1.23;;;;;;;14.39;48.44;98704.91;5101741;28;20458;-75
2021/11/01 15:15:03;;;;;;;3.10;1.30;;;;;;;14.07;49.80;98732.31;5079676;28;20500;-73
2021/11/01 15:17:37;;;;;;;2.30;0.90;;;;;;;14.25;50.10;98729.09;5080645;28;20579;-74
2021/11/01 15:20:19;;;;;;;3.87;1.40;;;;;;;14.17;49.32;98726.56;5080292;28;20459;-74
2021/11/01 15:22:56;;;;;;;3.13;1.20;;;;;;;14.11;49.67;98724.66;5067404;28;20460;-74
2021/11/01 15:37:25;;;;;;;2.87;1.10;;;;;;;14.12;48.91;98729.84;4994954;28;21183;-73
2021/11/01 16:18:35;;;;;;;3.73;1.73;;;;;;;13.11;52.29;98765.16;5082464;28;20467;-74
2021/11/01 16:21:03;;;;;;;6.83;2.00;;;;;;;13.06;52.58;98762.22;5085132;28;20478;-73
2021/11/01 16:23:36;;;;;;;5.40;2.53;;;;;;;13.05;51.55;98776.63;5086871;28;20452;-72
2021/11/01 16:26:12;;;;;;;6.30;2.57;;;;;;;13.16;51.99;98770.75;5080018;28;20483;-73
2021/11/01 16:28:39;;;;;;;6.37;2.20;;;;;;;13.10;51.84;98770.69;5079973;28;20447;-74
2021/11/01 16:33:55;;;;;;;3.40;1.87;;;;;;;13.01;52.24;98778.06;5075404;28;20793;-73
2021/11/01 16:36:29;;;;;;;3.80;2.03;;;;;;;12.88;52.66;98780.59;5083425;28;20879;-72
2021/11/01 16:38:57;;;;;;;5.83;2.03;;;;;;;12.86;53.07;98777.28;5084744;28;20478;-73
2021/11/01 16:41:24;;;;;;;5.70;2.30;;;;;;;12.76;53.03;98777.63;5084081;28;20482;-73
2021/11/01 16:43:51;;;;;;;9.00;3.07;;;;;;;12.77;53.41;98782.78;5081927;28;20518;-73
2021/11/01 16:46:18;;;;;;;4.00;2.67;;;;;;;12.62;53.36;98782.03;5083253;28;20475;-74
2021/11/01 16:48:46;;;;;;;4.40;2.30;;;;;;;12.71;52.73;98782.72;5084534;28;20516;-73
2021/11/01 16:51:12;;;;;;;4.03;2.30;;;;;;;12.63;53.28;98781.81;5081790;28;20507;-73
2021/11/01 16:53:42;;;;;;;4.90;2.30;;;;;;;12.54;53.48;98776.78;5083862;28;20502;-73
2021/11/01 16:56:27;;;;;;;6.67;3.00;;;;;;;12.58;53.99;98773.50;5083535;28;20463;-73
2021/11/01 16:58:58;;;;;;;9.53;2.33;;;;;;;12.63;53.68;98767.56;5083108;28;20472;-73
2021/11/01 17:01:27;;;;;;;4.27;1.77;;;;;;;12.53;53.62;98769.72;5082449;28;20547;-73
2021/11/01 17:04:00;;;;;;;4.13;1.97;;;;;;;12.66;54.23;98777.09;5083696;28;20483;-73
2021/11/01 17:06:35;;;;;;;3.43;1.77;;;;;;;12.61;53.64;98775.81;5082453;28;20476;-72
2021/11/01 17:09:38;;;;;;;4.97;2.50;;;;;;;12.52;54.90;98770.78;5084482;28;20710;-72
2021/11/01 17:23:20;;;;;;;4.03;2.17;;;;;;;12.36;55.04;98775.34;5083702;28;20447;-72
2021/11/01 17:25:57;;;;;;;2.90;2.03;;;;;;;12.39;54.95;98772.28;5079749;28;20475;-72
2021/11/01 17:28:41;;;;;;;5.10;2.70;;;;;;;12.56;55.09;98766.69;5082995;28;20478;-73
2021/11/01 17:36:49;;;;;;;6.47;2.60;;;;;;;12.63;54.65;98773.75;5081198;28;20474;-73
2021/11/01 18:37:43;;;;;;;3.83;2.70;;;;;;;12.48;54.90;98802.50;5084234;28;20483;-71
2021/11/01 18:45:53;;;;;;;4.83;2.00;;;;;;;11.77;56.55;98807.47;5078626;28;20463;-69
2021/11/01 18:51:09;;;;;;;4.63;2.20;;;;;;;12.02;56.39;98802.72;5091247;28;20512;-67
2021/11/01 18:53:38;;;;;;;5.10;2.70;;;;;;;11.90;56.93;98798.81;5101164;28;20447;-68
2021/11/01 18:56:08;;;;;;;4.60;2.30;;;;;;;11.97;56.36;98805.94;5083341;28;20536;-68
2021/11/01 18:58:37;;;;;;;3.87;2.17;;;;;;;12.08;56.50;98809.19;5082770;28;20475;-67
2021/11/01 19:01:07;;;;;;;7.67;2.63;;;;;;;12.07;56.97;98800.31;5090005;28;20470;-68
2021/11/01 19:03:37;;;;;;;7.27;1.90;;;;;;;11.91;56.77;98809.38;5079110;28;20793;-68
2021/11/01 19:06:13;;;;;;;2.87;1.60;;;;;;;11.80;56.30;98807.94;5078360;28;20472;-67